Time;durP1;ratioP1;P1;durP2;ratioP2;P2;SDS_P1;SDS_P2;PMS_P1;PMS_P2;Temp;Humidity;BMP_temperature;BMP_pressure;BME280_temperature;BME280_humidity;BME280_pressure;Samples;Min_cycle;Max_cycle;Signal;HPM_P1;HPM_P2
2023/05/04 00:02:23;;;;;;;13.35;3.40;;;;;;;9.78;100.00;101983.38;5119050;28;20054;-89
2023/05/04 00:04:53;;;;;;;14.82;4.63;;;;;;;9.77;100.00;102018.25;5119731;28;20112;-89
2023/05/04 00:07:20;;;;;;;16.88;3.72;;;;;;;9.57;100.00;101963.63;5116806;28;20701;-87
2023/05/04 00:09:48;;;;;;;13.60;3.97;;;;;;;9.74;100.00;101979.03;5111009;28;20385;-88
2023/05/04 00:12:17;;;;;;;13.85;3.55;;;;;;;9.80;100.00;102007.75;5114625;28;20051;-88
2023/05/04 00:14:44;;;;;;;20.42;5.43;;;;;;;9.88;100.00;102003.28;5116784;28;20067;-88
2023/05/04 00:17:11;;;;;;;11.80;3.63;;;;;;;9.45;100.00;101938.50;5112880;28;20081;-87
2023/05/04 00:19:40;;;;;;;16.95;4.22;;;;;;;9.46;100.00;101961.16;5100454;28;20071;-87
2023/05/04 00:22:07;;;;;;;13.32;3.70;;;;;;;9.39;100.00;101930.75;5113198;28;20055;-87
2023/05/04 00:24:35;;;;;;;13.18;3.22;;;;;;;9.44;100.00;101945.47;5119600;28;20077;-87
2023/05/04 00:27:01;;;;;;;13.07;3.88;;;;;;;9.53;100.00;101969.78;5120007;28;20396;-89
2023/05/04 00:29:29;;;;;;;22.10;5.50;;;;;;;9.41;100.00;101989.09;5118403;28;20160;-87
2023/05/04 00:31:56;;;;;;;14.52;4.47;;;;;;;9.30;100.00;101961.34;5119602;28;20058;-87
2023/05/04 00:34:23;;;;;;;16.45;5.22;;;;;;;9.26;100.00;101946.59;5119088;28;20127;-87
2023/05/04 00:36:49;;;;;;;13.65;4.35;;;;;;;9.68;100.00;102000.94;5120396;28;20054;-86
2023/05/04 00:39:16;;;;;;;12.15;3.05;;;;;;;9.49;100.00;101930.59;5118678;28;20040;-88
2023/05/04 00:41:44;;;;;;;16.92;4.80;;;;;;;9.57;100.00;101955.75;5119816;28;20048;-88
2023/05/04 00:44:11;;;;;;;15.00;3.97;;;;;;;9.95;100.00;102001.41;5119361;28;20109;-89
2023/05/04 00:46:39;;;;;;;13.65;3.45;;;;;;;9.81;100.00;101989.41;5118885;28;20055;-89
2023/05/04 00:49:07;;;;;;;12.73;4.30;;;;;;;9.81;100.00;101972.84;5117751;28;20044;-87
2023/05/04 00:51:35;;;;;;;18.00;4.78;;;;;;;9.66;100.00;101964.34;5116333;28;20048;-88
2023/05/04 00:54:02;;;;;;;15.13;4.53;;;;;;;9.75;100.00;101981.66;5119006;28;20043;-89
2023/05/04 00:56:29;;;;;;;12.15;3.88;;;;;;;9.52;100.00;101966.28;5113581;28;20036;-88
2023/05/04 00:58:57;;;;;;;18.65;4.40;;;;;;;9.47;100.00;101953.28;5134294;27;20048;-88
2023/05/04 01:01:24;;;;;;;16.40;4.65;;;;;;;9.57;100.00;101940.06;5119020;28;20082;-88
2023/05/04 01:03:53;;;;;;;20.00;4.88;;;;;;;9.50;100.00;101970.66;5112744;28;20066;-88
2023/05/04 01:06:33;;;;;;;14.73;4.30;;;;;;;9.49;100.00;101930.59;5099665;28;20135;-87
2023/05/04 01:09:18;;;;;;;10.23;3.75;;;;;;;9.91;100.00;102007.59;5118328;28;20044;-87
2023/05/04 01:12:19;;;;;;;16.25;3.80;;;;;;;9.61;100.00;101945.22;5118120;28;20052;-87
2023/05/04 01:14:48;;;;;;;14.75;3.63;;;;;;;9.76;100.00;101978.16;5107448;28;20047;-89
2023/05/04 01:17:15;;;;;;;12.75;3.78;;;;;;;9.69;100.00;101966.91;5118313;28;20050;-87
2023/05/04 01:19:41;;;;;;;13.75;4.15;;;;;;;9.46;100.00;101938.47;5118057;28;20039;-88
2023/05/04 01:22:08;;;;;;;21.23;5.32;;;;;;;9.21;100.00;101917.03;5116956;28;20056;-89
2023/05/04 01:24:36;;;;;;;16.83;4.07;;;;;;;9.49;100.00;101934.94;5117722;28;20059;-88
2023/05/04 01:27:28;;;;;;;13.23;3.40;;;;;;;9.88;100.00;102013.75;5119158;27;20493;-88
2023/05/04 01:30:09;;;;;;;12.30;3.53;;;;;;;9.83;100.00;102005.94;5096520;28;20489;-88
2023/05/04 01:32:39;;;;;;;15.48;4.00;;;;;;;9.41;100.00;101984.72;5118400;28;20107;-88
2023/05/04 01:35:07;;;;;;;17.88;5.40;;;;;;;9.57;100.00;101997.59;5119661;27;20043;-87
2023/05/04 01:37:34;;;;;;;18.05;4.63;;;;;;;9.23;100.00;101959.69;5105453;28;20048;-87
2023/05/04 01:40:01;;;;;;;14.38;4.18;;;;;;;9.53;100.00;101972.41;5117633;28;20054;-87
2023/05/04 01:42:28;;;;;;;19.80;4.28;;;;;;;9.42;100.00;101980.34;5115063;28;20090;-88
2023/05/04 01:44:55;;;;;;;13.77;4.05;;;;;;;9.58;100.00;102015.88;5117485;28;20090;-87
2023/05/04 01:47:22;;;;;;;12.77;4.28;;;;;;;9.10;100.00;101950.25;5113777;28;20048;-87
2023/05/04 01:49:49;;;;;;;14.43;3.78;;;;;;;9.38;100.00;101960.38;5101926;28;20047;-88
2023/05/04 01:52:16;;;;;;;16.55;4.97;;;;;;;9.47;100.00;101971.59;5116619;28;20197;-89
2023/05/04 01:54:42;;;;;;;14.60;4.13;;;;;;;9.50;100.00;101983.75;5103200;28;20051;-87
2023/05/04 01:57:09;;;;;;;12.82;3.88;;;;;;;9.28;100.00;101933.50;5114946;28;20044;-88
2023/05/04 01:59:36;;;;;;;16.88;4.13;;;;;;;9.43;100.00;101964.66;5111254;28;20043;-89
2023/05/04 02:02:03;;;;;;;9.63;3.20;;;;;;;9.44;100.00;101935.00;5111676;28;20044;-87
2023/05/04 02:04:30;;;;;;;16.17;3.70;;;;;;;9.56;100.00;101954.03;5117342;28;20126;-88
2023/05/04 02:06:56;;;;;;;17.20;4.88;;;;;;;9.39;100.00;101968.19;5116861;28;20059;-87
2023/05/04 02:09:23;;;;;;;19.63;4.55;;;;;;;9.35;100.00;101968.25;5116663;28;20400;-87
2023/05/04 02:11:50;;;;;;;22.20;4.47;;;;;;;9.11;100.00;101942.41;5116405;28;20536;-87
2023/05/04 02:14:17;;;;;;;17.13;5.43;;;;;;;9.20;100.00;101948.41;5119410;28;20468;-87
2023/05/04 02:16:44;;;;;;;15.32;4.57;;;;;;;8.98;100.00;101925.16;5118568;28;20068;-87
2023/05/04 02:19:10;;;;;;;16.70;4.15;;;;;;;9.18;100.00;101939.72;5120707;28;20036;-88
2023/05/04 02:21:39;;;;;;;17.10;4.05;;;;;;;9.31;100.00;101963.06;5109753;28;20055;-87
2023/05/04 02:24:06;;;;;;;13.02;4.18;;;;;;;9.16;100.00;101957.19;5119834;28;20036;-87
2023/05/04 02:26:34;;;;;;;18.23;4.22;;;;;;;9.16;100.00;101933.66;5120603;28;20052;-88
2023/05/04 02:29:02;;;;;;;11.50;4.25;;;;;;;9.05;100.00;101941.63;5120732;28;20116;-88
2023/05/04 02:31:29;;;;;;;13.82;4.30;;;;;;;9.10;100.00;101929.34;5108040;28;20047;-87
2023/05/04 02:33:55;;;;;;;13.68;4.22;;;;;;;9.28;100.00;101946.56;5120151;28;20058;-87
2023/05/04 02:36:22;;;;;;;16.20;4.85;;;;;;;9.12;100.00;101951.13;5114749;28;20059;-88
2023/05/04 02:38:50;;;;;;;12.80;3.42;;;;;;;9.21;100.00;101924.00;5120879;28;20044;-88
2023/05/04 02:41:16;;;;;;;13.95;4.30;;;;;;;9.05;100.00;101921.59;5115689;28;20044;-88
2023/05/04 02:43:43;;;;;;;13.73;4.05;;;;;;;9.17;100.00;101937.97;5121394;28;20051;-88
2023/05/04 02:46:10;;;;;;;17.67;3.88;;;;;;;9.38;100.00;101986.50;5120899;28;20067;-87
2023/05/04 02:48:37;;;;;;;13.55;3.90;;;;;;;9.15;100.00;101951.06;5121130;28;20044;-88
2023/05/04 02:51:04;;;;;;;12.35;3.92;;;;;;;8.93;100.00;101903.44;5121816;28;20054;-88
2023/05/04 02:53:31;;;;;;;15.23;4.13;;;;;;;9.40;100.00;101980.41;5120917;28;20058;-88
2023/05/04 02:55:58;;;;;;;15.23;3.80;;;;;;;9.18;100.00;101930.13;5117195;28;20048;-86
2023/05/04 02:58:25;;;;;;;15.93;4.25;;;;;;;9.13;100.00;101922.34;5119921;28;20048;-88
2023/05/04 03:00:53;;;;;;;10.95;3.53;;;;;;;9.19;100.00;101925.75;5115243;28;20062;-88
2023/05/04 03:03:20;;;;;;;12.90;3.58;;;;;;;9.23;100.00;101927.47;5118390;28;20071;-88
2023/05/04 03:05:47;;;;;;;12.88;4.43;;;;;;;9.39;100.00;101939.44;5106618;28;20044;-88
2023/05/04 03:08:14;;;;;;;13.13;3.65;;;;;;;9.39;100.00;101954.28;5119749;28;20055;-88
2023/05/04 03:10:41;;;;;;;13.50;4.28;;;;;;;9.15;100.00;101917.09;5120618;28;20043;-89
2023/05/04 03:13:08;;;;;;;12.07;4.07;;;;;;;8.92;100.00;101896.47;5117511;28;20435;-88
2023/05/04 03:15:35;;;;;;;13.85;3.70;;;;;;;9.35;100.00;101956.06;5118316;28;20124;-87
2023/05/04 03:18:01;;;;;;;13.23;4.10;;;;;;;9.09;100.00;101944.16;5110509;28;20071;-88
2023/05/04 03:20:28;;;;;;;12.18;4.13;;;;;;;9.08;100.00;101925.91;5114252;28;20062;-88
2023/05/04 03:22:55;;;;;;;13.30;3.95;;;;;;;9.13;100.00;101931.94;5118168;28;20413;-88
2023/05/04 03:25:22;;;;;;;12.85;3.80;;;;;;;8.89;100.00;101881.72;5120442;28;20469;-88
2023/05/04 03:27:49;;;;;;;14.20;4.25;;;;;;;8.66;100.00;101886.38;5106249;28;20066;-88
2023/05/04 03:30:16;;;;;;;17.67;4.32;;;;;;;9.07;100.00;101925.03;5119159;28;20096;-88
2023/05/04 03:32:43;;;;;;;11.45;3.78;;;;;;;9.11;100.00;101960.69;5117514;28;20043;-88
2023/05/04 03:35:10;;;;;;;14.05;3.95;;;;;;;9.01;100.00;101913.78;5119255;28;20048;-89
2023/05/04 03:37:37;;;;;;;14.38;3.75;;;;;;;8.67;100.00;101875.03;5117696;28;20067;-88
2023/05/04 03:40:04;;;;;;;11.38;3.70;;;;;;;9.06;100.00;101909.38;5118636;28;20504;-88
2023/05/04 03:42:31;;;;;;;15.20;3.95;;;;;;;8.83;100.00;101873.09;5114621;28;20069;-84
2023/05/04 03:44:58;;;;;;;15.57;3.70;;;;;;;9.11;100.00;101920.63;5115449;28;20055;-85
2023/05/04 03:47:28;;;;;;;14.27;4.40;;;;;;;8.86;100.00;101862.63;5106815;28;20405;-84
2023/05/04 03:49:55;;;;;;;14.85;3.33;;;;;;;9.03;100.00;101893.72;5110157;28;20130;-88
2023/05/04 03:52:22;;;;;;;17.10;4.13;;;;;;;8.77;100.00;101876.66;5110688;28;20058;-85
2023/05/04 03:54:48;;;;;;;28.60;5.68;;;;;;;8.75;100.00;101886.25;5111335;28;20060;-86
2023/05/04 03:57:15;;;;;;;14.05;4.57;;;;;;;8.90;100.00;101906.09;5107984;28;20043;-88
2023/05/04 03:59:42;;;;;;;12.77;3.78;;;;;;;9.01;100.00;101890.28;5117520;28;20130;-88
2023/05/04 04:02:09;;;;;;;12.52;3.53;;;;;;;8.98;100.00;101893.81;5114779;28;20058;-87
2023/05/04 04:04:35;;;;;;;15.82;4.00;;;;;;;8.68;100.00;101906.34;5110470;28;20091;-88
2023/05/04 04:07:02;;;;;;;15.68;3.90;;;;;;;9.00;100.00;101923.38;5104108;28;20051;-88
2023/05/04 04:09:29;;;;;;;11.75;3.42;;;;;;;9.09;100.00;101891.06;5117526;28;20054;-88
2023/05/04 04:11:56;;;;;;;12.98;4.13;;;;;;;8.98;100.00;101898.16;5116287;28;20055;-88
2023/05/04 04:14:23;;;;;;;8.73;3.03;;;;;;;9.02;100.00;101863.28;5117317;28;20082;-88
2023/05/04 04:16:50;;;;;;;14.48;3.72;;;;;;;9.00;100.00;101901.63;5111402;28;20401;-88
2023/05/04 04:19:16;;;;;;;17.25;4.20;;;;;;;8.63;100.00;101870.72;5118182;28;20040;-88
2023/05/04 04:21:43;;;;;;;13.13;3.28;;;;;;;9.07;100.00;101909.38;5116588;28;20042;-88
2023/05/04 04:24:10;;;;;;;17.10;4.47;;;;;;;9.13;100.00;101903.19;5103482;28;20051;-87
2023/05/04 04:26:37;;;;;;;11.60;3.67;;;;;;;8.91;100.00;101887.78;5102156;28;20048;-88
2023/05/04 04:29:03;;;;;;;12.23;3.05;;;;;;;8.89;100.00;101853.00;5107595;28;20685;-88
2023/05/04 04:31:30;;;;;;;9.98;3.00;;;;;;;9.02;100.00;101879.81;5117326;28;20043;-88
2023/05/04 04:33:58;;;;;;;9.07;3.25;;;;;;;8.88;100.00;101902.63;5116487;28;20085;-89
2023/05/04 04:36:25;;;;;;;15.52;3.65;;;;;;;8.86;100.00;101891.34;5101446;28;20044;-89
2023/05/04 04:38:52;;;;;;;10.10;2.58;;;;;;;9.23;100.00;101909.19;5105279;28;20047;-89
2023/05/04 04:41:19;;;;;;;11.93;3.00;;;;;;;9.16;100.00;101907.53;5118643;28;20055;-89
2023/05/04 04:43:46;;;;;;;11.07;3.55;;;;;;;9.25;100.00;101900.41;5107843;28;20051;-88
2023/05/04 04:46:14;;;;;;;10.73;3.00;;;;;;;9.23;100.00;101917.00;5096397;28;20055;-87
2023/05/04 04:48:41;;;;;;;9.88;2.75;;;;;;;8.94;100.00;101889.47;5114609;28;20052;-89
2023/05/04 04:51:11;;;;;;;11.13;3.20;;;;;;;9.22;100.00;101941.41;5117508;28;20043;-88
2023/05/04 04:53:38;;;;;;;17.13;3.50;;;;;;;9.01;100.00;101877.22;5116275;28;20066;-89
2023/05/04 04:56:06;;;;;;;13.20;2.85;;;;;;;9.00;100.00;101896.41;5118014;28;20055;-89
2023/05/04 04:58:33;;;;;;;13.95;3.75;;;;;;;8.95;100.00;101900.81;5117453;28;20055;-88
2023/05/04 05:01:02;;;;;;;13.98;3.55;;;;;;;8.71;100.00;101885.44;5117954;28;20051;-88
2023/05/04 05:03:29;;;;;;;13.40;3.65;;;;;;;8.66;100.00;101873.31;5115989;28;20051;-88
2023/05/04 05:05:56;;;;;;;13.80;3.55;;;;;;;8.77;100.00;101894.06;5100162;28;20051;-88
2023/05/04 05:08:23;;;;;;;11.82;4.03;;;;;;;8.65;100.00;101863.75;5105625;28;20054;-89
2023/05/04 05:10:49;;;;;;;8.20;3.05;;;;;;;8.78;100.00;101888.81;5112935;28;20537;-87
2023/05/04 05:13:16;;;;;;;12.95;4.18;;;;;;;8.76;100.00;101924.53;5109107;28;20638;-88
2023/05/04 05:15:43;;;;;;;14.25;3.97;;;;;;;8.87;100.00;101922.69;5099765;28;20056;-88
2023/05/04 05:18:10;;;;;;;14.02;3.92;;;;;;;8.74;100.00;101913.22;5117682;28;20058;-89
2023/05/04 05:20:37;;;;;;;14.10;4.00;;;;;;;8.72;100.00;101904.56;5107790;28;20127;-89
2023/05/04 05:23:04;;;;;;;9.35;3.28;;;;;;;9.07;100.00;101911.13;5112375;28;20051;-89
2023/05/04 05:25:33;;;;;;;13.18;3.33;;;;;;;8.98;100.00;101896.41;5104845;28;20052;-89
2023/05/04 05:28:00;;;;;;;11.15;3.17;;;;;;;8.70;100.00;101872.38;5118059;28;20477;-89
2023/05/04 05:30:27;;;;;;;14.05;3.50;;;;;;;8.58;100.00;101865.53;5117771;28;20040;-88
2023/05/04 05:32:54;;;;;;;11.20;3.97;;;;;;;8.60;100.00;101897.72;5118252;28;20047;-89
2023/05/04 05:35:21;;;;;;;9.52;3.38;;;;;;;8.51;100.00;101890.84;5117942;28;20079;-89
2023/05/04 05:37:48;;;;;;;11.45;3.45;;;;;;;8.71;100.00;101898.47;5116593;28;20115;-88
2023/05/04 05:40:14;;;;;;;11.07;3.22;;;;;;;9.06;100.00;101909.38;5116866;28;20072;-88
2023/05/04 05:42:41;;;;;;;12.93;3.40;;;;;;;8.69;100.00;101862.81;5116609;28;20039;-88
2023/05/04 05:45:09;;;;;;;8.80;2.85;;;;;;;8.93;100.00;101922.59;5115578;28;20044;-88
2023/05/04 05:47:36;;;;;;;8.48;2.55;;;;;;;8.96;100.00;101902.53;5117521;28;20314;-88
2023/05/04 05:50:03;;;;;;;9.05;3.30;;;;;;;8.91;100.00;101903.47;5118911;28;20069;-88
2023/05/04 05:52:30;;;;;;;10.00;3.28;;;;;;;9.07;100.00;101939.84;5117097;28;20409;-89
2023/05/04 05:54:57;;;;;;;10.40;2.78;;;;;;;8.83;100.00;101858.28;5115275;28;20050;-84
2023/05/04 05:57:28;;;;;;;10.65;3.13;;;;;;;8.97;100.00;101896.44;5114706;28;20171;-85
2023/05/04 05:59:55;;;;;;;15.27;3.22;;;;;;;9.04;100.00;101932.91;5116054;28;20052;-84
2023/05/04 06:02:22;;;;;;;11.70;3.42;;;;;;;9.36;100.00;101922.94;5112250;28;20048;-85
2023/05/04 06:04:49;;;;;;;11.30;3.30;;;;;;;9.20;100.00;101935.34;5116217;28;20053;-85
2023/05/04 06:07:17;;;;;;;11.43;3.15;;;;;;;9.17;100.00;101919.69;5117308;27;20051;-85
2023/05/04 06:09:44;;;;;;;8.80;2.70;;;;;;;9.18;100.00;101882.25;5112449;28;20048;-85
2023/05/04 06:12:12;;;;;;;7.32;2.55;;;;;;;9.42;100.00;101933.28;5110740;28;20039;-85
2023/05/04 06:14:39;;;;;;;10.60;3.25;;;;;;;9.24;100.00;101930.06;5120222;27;20047;-84
2023/05/04 06:17:05;;;;;;;14.57;3.30;;;;;;;9.04;100.00;101927.69;5104007;28;20058;-85
2023/05/04 06:19:39;;;;;;;11.07;2.95;;;;;;;9.08;100.00;101918.06;5116217;28;20473;-84
2023/05/04 06:22:05;;;;;;;14.43;3.05;;;;;;;8.99;100.00;101905.13;5115196;28;20047;-84
2023/05/04 06:24:32;;;;;;;13.05;3.17;;;;;;;9.01;100.00;101888.56;5105804;28;20063;-84
2023/05/04 06:26:59;;;;;;;9.75;2.88;;;;;;;9.02;100.00;101926.00;5115697;27;20396;-84
2023/05/04 06:29:26;;;;;;;12.98;2.75;;;;;;;9.26;100.00;101959.66;5099111;28;20048;-84
2023/05/04 06:31:52;;;;;;;9.93;3.22;;;;;;;9.06;100.00;101938.97;5109180;28;20055;-84
2023/05/04 06:34:20;;;;;;;13.48;3.60;;;;;;;8.73;100.00;101873.22;5104511;28;20055;-84
2023/05/04 06:36:48;;;;;;;10.70;3.60;;;;;;;8.87;100.00;101878.28;5114730;28;20052;-83
2023/05/04 06:39:15;;;;;;;8.23;3.33;;;;;;;9.42;100.00;101921.09;5115455;28;20067;-84
2023/05/04 06:41:41;;;;;;;10.02;3.00;;;;;;;9.22;100.00;101876.06;5111480;28;20044;-84
2023/05/04 06:44:08;;;;;;;11.15;2.90;;;;;;;9.26;100.00;101943.09;5114861;28;20472;-84
2023/05/04 06:46:38;;;;;;;18.42;3.30;;;;;;;9.50;100.00;101957.59;5111426;28;20044;-84
2023/05/04 06:49:05;;;;;;;10.82;3.22;;;;;;;8.90;100.00;101886.03;5114381;28;20048;-83
2023/05/04 06:51:35;;;;;;;11.25;2.83;;;;;;;9.37;100.00;101912.47;5114369;28;20059;-84
2023/05/04 06:54:01;;;;;;;9.95;3.22;;;;;;;9.36;100.00;101894.19;5106042;28;20063;-83
2023/05/04 06:56:28;;;;;;;15.50;3.90;;;;;;;9.43;100.00;101893.22;5110531;28;20047;-84
2023/05/04 06:58:55;;;;;;;8.15;2.90;;;;;;;9.51;100.00;101917.50;5109791;28;20047;-84
2023/05/04 07:01:22;;;;;;;17.92;3.53;;;;;;;9.83;100.00;101875.16;5110443;28;20044;-84
2023/05/04 07:03:49;;;;;;;12.18;3.25;;;;;;;10.00;100.00;101908.03;5110975;28;20080;-83
2023/05/04 07:06:16;;;;;;;13.00;3.42;;;;;;;9.88;100.00;101922.19;5107658;28;20044;-84
2023/05/04 07:08:42;;;;;;;8.05;2.83;;;;;;;9.82;100.00;101915.28;5108532;28;20043;-83
2023/05/04 07:11:10;;;;;;;9.52;2.70;;;;;;;9.60;100.00;101883.38;5114558;28;20382;-84
2023/05/04 07:13:37;;;;;;;12.10;2.88;;;;;;;9.78;100.00;101913.59;5114497;28;20130;-84
2023/05/04 07:16:07;;;;;;;12.77;3.20;;;;;;;9.73;100.00;101938.97;5114746;28;20504;-85
2023/05/04 07:18:35;;;;;;;8.85;2.58;;;;;;;9.63;100.00;101891.19;5107071;28;20048;-84
2023/05/04 07:21:02;;;;;;;10.02;3.08;;;;;;;9.62;100.00;101896.44;5111018;28;20048;-84
2023/05/04 07:23:50;;;;;;;13.40;3.38;;;;;;;10.22;100.00;101946.03;5105109;28;20071;-84
2023/05/04 07:26:18;;;;;;;10.57;3.22;;;;;;;10.33;100.00;101909.22;5108915;28;20090;-85
2023/05/04 07:28:45;;;;;;;12.52;3.17;;;;;;;10.15;100.00;101896.44;5105749;28;20051;-84
2023/05/04 07:31:13;;;;;;;9.68;2.80;;;;;;;10.00;100.00;101898.41;5108562;28;20048;-84
2023/05/04 07:33:40;;;;;;;9.45;2.75;;;;;;;9.79;100.00;101911.84;5108769;28;20040;-85
2023/05/04 07:36:07;;;;;;;9.48;2.78;;;;;;;9.84;100.00;101873.41;5110514;28;20048;-84
2023/05/04 07:38:33;;;;;;;10.93;3.55;;;;;;;9.58;100.00;101892.09;5108345;28;20063;-85
2023/05/04 07:41:01;;;;;;;10.32;2.58;;;;;;;9.37;100.00;101901.16;5114260;28;20451;-84
2023/05/04 07:43:27;;;;;;;10.98;3.00;;;;;;;9.91;100.00;101918.66;5111761;27;20056;-84
2023/05/04 07:45:54;;;;;;;11.63;2.85;;;;;;;10.02;100.00;101912.34;5105576;28;20476;-84
2023/05/04 07:48:21;;;;;;;12.80;3.00;;;;;;;9.91;100.00;101916.03;5113419;28;20441;-85
2023/05/04 07:50:52;;;;;;;10.20;2.88;;;;;;;9.75;100.00;101908.41;5113815;28;20043;-84
2023/05/04 07:53:24;;;;;;;10.18;2.63;;;;;;;9.93;100.00;101936.03;5113799;28;20537;-85
2023/05/04 07:55:53;;;;;;;9.07;2.40;;;;;;;10.18;100.00;101910.34;5113823;28;20044;-85
2023/05/04 07:58:19;;;;;;;8.93;2.83;;;;;;;10.82;100.00;101928.41;5101230;28;20127;-85
2023/05/04 08:00:46;;;;;;;10.43;2.90;;;;;;;10.88;100.00;101916.94;5096085;28;20406;-84
2023/05/04 08:03:13;;;;;;;10.48;3.53;;;;;;;10.83;100.00;101954.56;5113456;28;20139;-84
2023/05/04 08:05:40;;;;;;;8.95;3.25;;;;;;;10.85;100.00;101936.19;5112975;28;20078;-84
2023/05/04 08:08:07;;;;;;;10.15;2.72;;;;;;;10.88;100.00;101933.53;5111920;28;20052;-84
2023/05/04 08:10:35;;;;;;;7.88;2.45;;;;;;;10.78;100.00;101913.63;5111218;28;20108;-84
2023/05/04 08:13:04;;;;;;;13.07;3.08;;;;;;;10.78;100.00;101952.94;5109440;28;20055;-84
2023/05/04 08:15:30;;;;;;;12.20;3.00;;;;;;;10.64;100.00;101929.59;5109210;28;20080;-84
2023/05/04 08:17:58;;;;;;;9.02;2.40;;;;;;;10.57;100.00;101905.31;5099996;28;20052;-85
2023/05/04 08:20:24;;;;;;;8.75;3.08;;;;;;;11.01;100.00;101945.50;5109266;28;20105;-84
2023/05/04 08:22:52;;;;;;;10.70;2.88;;;;;;;10.84;100.00;101944.97;5109914;28;20059;-84
2023/05/04 08:25:19;;;;;;;9.07;2.78;;;;;;;10.80;100.00;101899.63;5112784;27;20126;-84
2023/05/04 08:27:45;;;;;;;9.88;2.67;;;;;;;10.61;100.00;101912.22;5112787;27;20412;-84
2023/05/04 08:30:12;;;;;;;8.32;2.72;;;;;;;10.57;100.00;101886.09;5111975;28;20044;-84
2023/05/04 08:32:39;;;;;;;8.55;2.40;;;;;;;10.84;100.00;101882.09;5111415;28;20047;-85
2023/05/04 08:35:07;;;;;;;8.60;2.15;;;;;;;11.02;100.00;101938.50;5105578;28;20082;-85
2023/05/04 08:37:33;;;;;;;9.05;2.60;;;;;;;10.82;100.00;101939.75;5092915;28;20044;-85
2023/05/04 08:40:00;;;;;;;7.93;2.70;;;;;;;11.14;100.00;101943.50;5097132;28;20048;-85
2023/05/04 08:42:32;;;;;;;7.40;2.72;;;;;;;10.89;100.00;101921.28;5111539;28;20488;-85
2023/05/04 08:44:59;;;;;;;10.52;2.65;;;;;;;11.14;100.00;101898.94;5094330;28;20134;-85
2023/05/04 08:47:30;;;;;;;11.50;2.70;;;;;;;11.62;100.00;101944.22;5109205;28;20047;-85
2023/05/04 08:49:57;;;;;;;9.60;2.55;;;;;;;11.37;100.00;101903.66;5113126;28;20126;-85
2023/05/04 08:52:25;;;;;;;9.10;2.30;;;;;;;11.60;100.00;101894.41;5106211;28;20374;-85
2023/05/04 08:54:54;;;;;;;7.85;2.30;;;;;;;11.39;100.00;101946.44;5108843;28;20055;-84
2023/05/04 08:57:25;;;;;;;8.48;2.15;;;;;;;11.05;100.00;101914.84;5100058;28;20075;-83
2023/05/04 08:59:54;;;;;;;11.13;3.15;;;;;;;10.98;100.00;101898.38;5096508;28;20044;-84
2023/05/04 09:02:22;;;;;;;10.27;2.80;;;;;;;11.08;100.00;101922.63;5108052;28;20043;-85
2023/05/04 09:04:51;;;;;;;9.35;2.80;;;;;;;10.89;100.00;101931.75;5102220;28;20052;-84
2023/05/04 09:07:20;;;;;;;10.10;2.22;;;;;;;11.02;100.00;101897.41;5099530;28;20048;-84
2023/05/04 09:09:49;;;;;;;13.77;2.60;;;;;;;11.29;100.00;101931.81;5112832;27;20047;-84
2023/05/04 09:12:17;;;;;;;18.23;2.88;;;;;;;10.97;100.00;101914.13;5102487;28;20054;-84
2023/05/04 09:14:47;;;;;;;8.95;2.35;;;;;;;11.39;100.00;101937.72;5111576;28;20047;-84
2023/05/04 09:17:26;;;;;;;9.60;2.17;;;;;;;11.06;100.00;101915.72;5111864;28;20052;-84
2023/05/04 09:20:00;;;;;;;9.70;2.60;;;;;;;10.91;100.00;101882.84;5112554;28;20047;-84
2023/05/04 09:22:28;;;;;;;10.20;2.25;;;;;;;10.57;100.00;101892.22;5112010;28;20400;-83
2023/05/04 09:25:09;;;;;;;8.25;2.55;;;;;;;10.96;100.00;101931.63;5095503;28;20098;-84
2023/05/04 09:27:38;;;;;;;11.77;3.10;;;;;;;11.04;100.00;101923.59;5108032;28;20043;-84
2023/05/04 09:30:05;;;;;;;9.13;2.65;;;;;;;10.69;100.00;101903.34;5105717;28;20051;-84
2023/05/04 09:32:44;;;;;;;9.57;2.40;;;;;;;10.49;100.00;101901.13;5107809;28;20044;-84
2023/05/04 09:35:10;;;;;;;6.78;2.63;;;;;;;10.58;100.00;101909.66;5106256;28;20138;-84
2023/05/04 09:37:51;;;;;;;9.80;2.55;;;;;;;10.22;100.00;101864.91;5105184;28;20075;-84
2023/05/04 09:40:17;;;;;;;13.48;3.08;;;;;;;10.38;100.00;101862.91;5111432;28;20043;-84
2023/05/04 09:42:44;;;;;;;9.80;3.20;;;;;;;10.22;100.00;101841.34;5108323;28;20063;-85
2023/05/04 09:45:11;;;;;;;14.35;2.60;;;;;;;10.63;100.00;101876.38;5104316;28;20052;-89
2023/05/04 09:47:40;;;;;;;9.57;2.80;;;;;;;10.82;100.00;101902.22;5107469;28;20067;-84
2023/05/04 09:50:16;;;;;;;20.27;2.85;;;;;;;10.38;100.00;101851.56;5105539;28;20075;-84
2023/05/04 09:52:48;;;;;;;9.82;2.38;;;;;;;10.33;100.00;101888.28;5110499;28;20051;-84
2023/05/04 09:55:17;;;;;;;11.25;3.25;;;;;;;10.59;100.00;101892.19;5108918;28;20048;-84
2023/05/04 09:57:45;;;;;;;11.65;3.13;;;;;;;9.98;100.00;101839.16;5107776;28;20059;-85
2023/05/04 10:00:16;;;;;;;8.25;2.65;;;;;;;10.26;100.00;101852.63;5105828;28;20035;-83
2023/05/04 10:02:45;;;;;;;9.38;2.90;;;;;;;10.34;100.00;101887.41;5102488;28;20055;-85
2023/05/04 10:05:16;;;;;;;7.97;2.80;;;;;;;10.24;100.00;101867.50;5112941;28;20051;-85
2023/05/04 10:07:44;;;;;;;9.13;2.78;;;;;;;10.15;100.00;101834.50;5113387;28;20578;-85
2023/05/04 10:10:13;;;;;;;8.05;2.88;;;;;;;10.59;100.00;101893.06;5107621;28;20054;-85
2023/05/04 10:12:40;;;;;;;10.93;3.28;;;;;;;10.44;100.00;101864.53;5098787;28;20047;-85
2023/05/04 10:15:09;;;;;;;10.55;3.45;;;;;;;10.39;100.00;101872.50;5110938;28;20047;-85
2023/05/04 10:17:48;;;;;;;15.55;3.72;;;;;;;10.58;100.00;101893.06;5097010;28;20077;-84
2023/05/04 10:20:54;;;;;;;9.95;2.75;;;;;;;10.12;100.00;101881.66;5101629;28;20431;-84
2023/05/04 10:23:36;;;;;;;13.18;2.78;;;;;;;10.69;100.00;101888.47;5103132;28;20108;-84
2023/05/04 10:26:17;;;;;;;7.65;2.58;;;;;;;10.58;100.00;101836.31;5106796;28;20075;-84
2023/05/04 10:29:10;;;;;;;10.48;3.00;;;;;;;10.71;100.00;101891.06;5110478;28;20043;-84
2023/05/04 10:31:41;;;;;;;;;;;;;;;10.71;100.00;101894.56;5109800;28;20040;-84
2023/05/04 10:34:09;;;;;;;10.48;3.28;;;;;;;10.35;100.00;101870.78;5111383;28;19959;-84
2023/05/04 10:36:41;;;;;;;11.55;2.83;;;;;;;9.98;100.00;101854.88;5115880;28;20036;-84
2023/05/04 10:39:21;;;;;;;9.02;2.95;;;;;;;10.42;100.00;101869.78;5114669;28;20054;-84
2023/05/04 10:42:07;;;;;;;9.32;2.63;;;;;;;9.99;100.00;101840.91;5114114;28;20147;-84
2023/05/04 10:44:47;;;;;;;9.43;3.00;;;;;;;10.33;100.00;101843.78;5111227;28;20474;-84
2023/05/04 10:47:14;;;;;;;10.55;3.30;;;;;;;10.45;100.00;101853.19;5114448;28;20092;-84
2023/05/04 10:49:41;;;;;;;16.88;3.83;;;;;;;10.88;100.00;101869.78;5114933;28;20051;-84
2023/05/04 10:52:16;;;;;;;11.50;3.10;;;;;;;10.81;100.00;101843.69;5114346;28;20558;-84
2023/05/04 10:54:44;;;;;;;13.27;2.97;;;;;;;10.85;100.00;101830.53;5115296;28;20062;-84
2023/05/04 10:57:13;;;;;;;24.50;11.50;;;;;;;10.57;100.00;101852.06;5115801;28;20059;-84
2023/05/04 10:59:40;;;;;;;32.33;18.42;;;;;;;10.87;100.00;101831.38;5115581;28;20048;-85
2023/05/04 11:02:08;;;;;;;45.22;21.90;;;;;;;10.76;100.00;101848.16;5105985;28;20062;-84
2023/05/04 11:04:35;;;;;;;25.67;9.77;;;;;;;11.02;100.00;101829.28;5111010;28;20059;-84
2023/05/04 11:07:07;;;;;;;24.83;11.85;;;;;;;11.33;100.00;101867.03;5111249;28;20405;-84
2023/05/04 11:09:37;;;;;;;90.50;45.90;;;;;;;11.26;100.00;101823.53;5114475;28;20066;-84
2023/05/04 11:12:06;;;;;;;25.80;12.60;;;;;;;10.71;100.00;101828.22;5106899;28;20127;-84
2023/05/04 11:14:36;;;;;;;21.70;8.02;;;;;;;10.76;100.00;101827.22;5111704;28;20047;-85
2023/05/04 11:17:08;;;;;;;15.07;4.82;;;;;;;10.73;100.00;101836.88;5114641;28;20052;-84
2023/05/04 11:19:53;;;;;;;21.15;8.18;;;;;;;10.85;100.00;101818.28;5114853;28;20497;-84
2023/05/04 11:22:21;;;;;;;14.07;4.22;;;;;;;10.77;100.00;101817.63;5107299;28;20439;-84
2023/05/04 11:24:48;;;;;;;20.45;7.10;;;;;;;10.81;100.00;101822.75;5100176;28;20392;-84